createdAt,value
2023-02-11T00:01:22.307Z,15.33
2023-02-11T00:03:49.549Z,14.10
2023-02-11T00:06:17.493Z,15.83
2023-02-11T00:08:44.246Z,16.40
2023-02-11T00:11:15.210Z,15.30
2023-02-11T00:13:43.466Z,17.77
2023-02-11T00:16:13.018Z,16.00
2023-02-11T00:18:39.845Z,15.83
2023-02-11T00:21:12.351Z,16.77
2023-02-11T00:23:39.894Z,15.57
2023-02-11T00:26:20.908Z,14.80
2023-02-11T00:28:49.797Z,14.27
2023-02-11T00:31:18.015Z,17.17
2023-02-11T00:33:45.398Z,17.77
2023-02-11T00:36:15.830Z,17.80
2023-02-11T00:38:47.789Z,13.63
2023-02-11T00:41:16.131Z,16.57
2023-02-11T00:43:43.607Z,14.23
2023-02-11T00:46:10.567Z,14.27
2023-02-11T00:48:37.435Z,19.30
2023-02-11T00:51:05.088Z,12.70
2023-02-11T00:53:32.302Z,14.87
2023-02-11T00:55:59.379Z,14.10
2023-02-11T00:58:26.308Z,16.57
2023-02-11T01:00:54.338Z,18.30
2023-02-11T01:03:21.599Z,18.13
2023-02-11T01:05:48.843Z,13.97
2023-02-11T01:08:15.949Z,16.53
2023-02-11T01:10:44.156Z,17.93
2023-02-11T01:13:11.087Z,14.60
2023-02-11T01:15:37.852Z,15.27
2023-02-11T01:18:05.598Z,13.20
2023-02-11T01:20:32.359Z,16.60
2023-02-11T01:22:59.185Z,14.40
2023-02-11T01:25:25.921Z,15.77
2023-02-11T01:27:52.660Z,17.60
2023-02-11T01:30:19.428Z,15.87
2023-02-11T01:32:47.336Z,15.50
2023-02-11T01:35:14.523Z,10.87
2023-02-11T01:37:42.048Z,16.03
2023-02-11T01:40:16.738Z,11.50
2023-02-11T01:42:44.475Z,13.93
2023-02-11T01:45:39.310Z,10.80
2023-02-11T01:48:06.545Z,14.27
2023-02-11T01:50:34.607Z,11.20
2023-02-11T01:53:21.993Z,11.00
2023-02-11T01:56:08.392Z,13.33
2023-02-11T01:58:39.619Z,16.60
2023-02-11T02:01:08.395Z,10.23
2023-02-11T02:03:40.994Z,10.53
2023-02-11T02:06:11.017Z,11.50
2023-02-11T02:08:52.516Z,13.23
2023-02-11T02:11:19.637Z,12.70
2023-02-11T02:13:46.488Z,13.63
2023-02-11T02:16:16.291Z,13.20
2023-02-11T02:18:49.079Z,11.13
2023-02-11T02:21:31.021Z,11.17
2023-02-11T02:24:22.129Z,12.10
2023-02-11T02:27:26.285Z,11.83
2023-02-11T02:30:11.549Z,8.47
2023-02-11T02:32:44.278Z,11.70
2023-02-11T02:35:15.136Z,14.57
2023-02-11T02:37:52.065Z,12.87
2023-02-11T02:40:25.811Z,8.27
2023-02-11T02:42:54.989Z,12.17
2023-02-11T02:45:22.080Z,9.80
2023-02-11T02:47:49.956Z,9.33
2023-02-11T02:50:23.079Z,9.03
2023-02-11T02:53:10.769Z,11.93
2023-02-11T02:55:51.432Z,7.30
2023-02-11T02:58:30.375Z,10.73
2023-02-11T03:01:19.219Z,10.07
2023-02-11T03:04:01.237Z,8.87
2023-02-11T03:07:11.499Z,10.13
2023-02-11T03:09:45.064Z,9.70
2023-02-11T03:12:13.960Z,8.87
2023-02-11T03:14:42.065Z,8.10
2023-02-11T03:17:10.507Z,8.53
2023-02-11T03:19:41.183Z,9.53
2023-02-11T03:22:18.384Z,7.20
2023-02-11T03:24:46.157Z,7.80
2023-02-11T03:27:21.537Z,8.93
2023-02-11T03:30:16.124Z,6.93
2023-02-11T03:32:56.468Z,9.13
2023-02-11T03:35:28.037Z,10.87
2023-02-11T03:38:02.687Z,13.30
2023-02-11T03:40:35.376Z,10.67
2023-02-11T03:43:23.142Z,12.30
2023-02-11T03:45:53.294Z,7.27
2023-02-11T03:48:28.056Z,9.13
2023-02-11T03:50:58.247Z,11.43
2023-02-11T03:53:25.046Z,11.47
2023-02-11T03:55:54.934Z,9.97
2023-02-11T03:58:22.081Z,11.90
2023-02-11T04:00:50.116Z,7.80
2023-02-11T04:03:16.960Z,10.60
2023-02-11T04:05:43.708Z,11.40
2023-02-11T04:08:10.488Z,8.07
2023-02-11T04:10:37.303Z,10.50
2023-02-11T04:13:04.015Z,6.80
2023-02-11T04:15:31.068Z,5.83
2023-02-11T04:17:57.824Z,11.60
2023-02-11T04:20:24.839Z,9.27
2023-02-11T04:22:52.218Z,8.93
2023-02-11T04:25:19.144Z,8.40
2023-02-11T04:27:45.987Z,6.47
2023-02-11T04:30:13.570Z,6.97
2023-02-11T04:32:40.315Z,8.50
2023-02-11T04:35:07.427Z,12.47
2023-02-11T04:37:34.243Z,7.67
2023-02-11T04:40:01.423Z,4.83
2023-02-11T04:42:28.144Z,7.13
2023-02-11T04:44:55.196Z,7.77
2023-02-11T04:47:22.271Z,8.30
2023-02-11T04:49:49.166Z,6.93
2023-02-11T04:52:16.330Z,8.00
2023-02-11T04:54:43.023Z,7.77
2023-02-11T04:57:09.746Z,7.40
2023-02-11T04:59:36.500Z,7.40
2023-02-11T05:02:04.388Z,7.23
2023-02-11T05:04:31.506Z,6.43
2023-02-11T05:06:58.777Z,5.93
2023-02-11T05:09:25.545Z,6.30
2023-02-11T05:11:52.752Z,5.53
2023-02-11T05:14:19.715Z,10.57
2023-02-11T05:16:46.618Z,8.77
2023-02-11T05:19:13.480Z,5.63
2023-02-11T05:21:50.357Z,6.50
2023-02-11T05:24:24.066Z,5.97
2023-02-11T05:26:50.894Z,5.73
2023-02-11T05:29:17.612Z,5.67
2023-02-11T05:31:44.400Z,7.70
2023-02-11T05:34:11.220Z,7.90
2023-02-11T05:36:37.898Z,8.13
2023-02-11T05:39:04.640Z,6.20
2023-02-11T05:41:31.545Z,7.63
2023-02-11T05:43:58.281Z,6.10
2023-02-11T05:46:25.147Z,6.60
2023-02-11T05:48:51.957Z,6.47
2023-02-11T05:51:18.731Z,5.60
2023-02-11T05:53:45.608Z,7.60
2023-02-11T05:56:12.665Z,5.80
2023-02-11T05:58:39.378Z,7.27
2023-02-11T06:01:06.231Z,6.73
2023-02-11T06:03:33.003Z,8.63
2023-02-11T06:05:59.754Z,8.50
2023-02-11T06:08:26.467Z,10.10
2023-02-11T06:10:53.149Z,6.33
2023-02-11T06:13:20.082Z,7.73
2023-02-11T06:15:56.087Z,6.90
2023-02-11T06:18:23.117Z,7.43
2023-02-11T06:20:50.147Z,6.43
2023-02-11T06:23:17.154Z,8.23
2023-02-11T06:25:44.050Z,5.07
2023-02-11T06:28:11.238Z,5.77
2023-02-11T06:30:44.713Z,8.00
2023-02-11T06:33:11.461Z,7.57
2023-02-11T06:35:39.448Z,6.40
2023-02-11T06:38:06.431Z,5.43
2023-02-11T06:40:33.189Z,4.90
2023-02-11T06:42:59.976Z,4.83
2023-02-11T06:45:26.859Z,5.93
2023-02-11T06:47:53.627Z,6.93
2023-02-11T06:50:20.563Z,6.63
2023-02-11T06:52:47.469Z,4.77
2023-02-11T06:55:14.790Z,5.63
2023-02-11T06:57:41.741Z,5.90
2023-02-11T07:00:09.512Z,7.83
2023-02-11T07:02:36.700Z,6.77
2023-02-11T07:05:04.971Z,9.93
2023-02-11T07:07:34.281Z,8.77
2023-02-11T07:10:03.298Z,7.63
2023-02-11T07:12:31.319Z,6.40
2023-02-11T07:14:58.417Z,5.60
2023-02-11T07:17:25.333Z,8.83
2023-02-11T07:19:52.173Z,4.97
2023-02-11T07:22:18.948Z,8.10
2023-02-11T07:24:46.402Z,6.00
2023-02-11T07:27:13.349Z,6.87
2023-02-11T07:29:42.356Z,6.00
2023-02-11T07:32:09.195Z,5.83
2023-02-11T07:34:36.073Z,9.53
2023-02-11T07:37:03.174Z,6.30
2023-02-11T07:39:30.452Z,6.97
2023-02-11T07:41:57.331Z,6.47
2023-02-11T07:44:25.134Z,7.07
2023-02-11T07:46:52.246Z,7.33
2023-02-11T07:49:19.049Z,9.00
2023-02-11T07:51:46.113Z,9.57
2023-02-11T07:54:13.113Z,6.00
2023-02-11T07:56:40.502Z,7.77
2023-02-11T07:59:07.462Z,6.83
2023-02-11T08:01:34.501Z,5.87
2023-02-11T08:04:02.208Z,6.60
2023-02-11T08:06:32.135Z,7.03
2023-02-11T08:09:03.924Z,4.73
2023-02-11T08:11:30.798Z,6.93
2023-02-11T08:13:57.569Z,8.63
2023-02-11T08:16:33.936Z,8.30
2023-02-11T08:19:07.481Z,8.53
2023-02-11T08:21:34.220Z,6.73
2023-02-11T08:24:03.122Z,6.73
2023-02-11T08:26:32.049Z,5.17
2023-02-11T08:28:59.375Z,6.20
2023-02-11T08:31:29.440Z,6.33
2023-02-11T08:33:59.885Z,7.40
2023-02-11T08:36:32.080Z,7.13
2023-02-11T08:39:17.542Z,7.27
2023-02-11T08:41:47.200Z,7.17
2023-02-11T08:44:13.970Z,9.83
2023-02-11T08:46:40.976Z,6.30
2023-02-11T08:49:07.850Z,6.73
2023-02-11T08:51:34.747Z,5.77
2023-02-11T08:54:02.342Z,7.93
2023-02-11T08:56:31.145Z,8.37
2023-02-11T08:58:57.865Z,7.23
2023-02-11T09:01:28.843Z,7.37
2023-02-11T09:03:56.548Z,15.20
2023-02-11T09:06:25.992Z,6.53
2023-02-11T09:08:55.064Z,9.20
2023-02-11T09:11:26.491Z,8.60
2023-02-11T09:13:54.497Z,8.97
2023-02-11T09:16:27.747Z,7.07
2023-02-11T09:18:57.242Z,7.80
2023-02-11T09:21:24.241Z,8.10
2023-02-11T09:23:51.864Z,8.90
2023-02-11T09:26:25.215Z,6.40
2023-02-11T09:28:52.415Z,12.40
2023-02-11T09:31:25.190Z,6.70
2023-02-11T09:33:55.284Z,8.27
2023-02-11T09:36:28.830Z,7.97
2023-02-11T09:38:58.814Z,5.20
2023-02-11T09:41:25.426Z,5.73
2023-02-11T09:43:56.246Z,14.50
2023-02-11T09:46:24.966Z,3.67
2023-02-11T09:48:55.085Z,10.80
2023-02-11T09:51:29.840Z,3.27
2023-02-11T09:54:03.837Z,3.63
2023-02-11T09:56:31.931Z,8.70
2023-02-11T09:58:58.716Z,4.17
2023-02-11T10:01:25.487Z,6.77
2023-02-11T10:04:16.846Z,4.37
2023-02-11T10:06:54.309Z,8.27
2023-02-11T10:09:35.865Z,15.47
2023-02-11T10:12:11.710Z,4.57
2023-02-11T10:14:38.702Z,7.70
2023-02-11T10:17:22.438Z,7.77
2023-02-11T10:20:20.936Z,5.60
2023-02-11T10:22:51.910Z,7.10
2023-02-11T10:25:39.118Z,7.33
2023-02-11T10:28:21.498Z,12.43
2023-02-11T10:30:57.447Z,5.40
2023-02-11T10:33:33.270Z,7.50
2023-02-11T10:36:00.060Z,7.50
2023-02-11T10:38:28.135Z,7.80
2023-02-11T10:40:54.879Z,5.93
2023-02-11T10:43:26.769Z,9.33
2023-02-11T10:45:56.057Z,6.60
2023-02-11T10:48:44.916Z,9.00
2023-02-11T10:51:28.453Z,7.03
2023-02-11T10:54:04.624Z,3.17
2023-02-11T10:56:34.979Z,4.40
2023-02-11T10:59:03.769Z,5.30
2023-02-11T11:01:43.672Z,3.63
2023-02-11T11:04:42.931Z,5.03
2023-02-11T11:07:25.060Z,3.13
2023-02-11T11:10:08.515Z,2.57
2023-02-11T11:12:49.030Z,3.00
2023-02-11T11:15:30.441Z,3.83
2023-02-11T11:18:23.542Z,12.67
2023-02-11T11:21:24.284Z,15.70
2023-02-11T11:24:00.033Z,2.80
2023-02-11T11:26:49.370Z,3.90
2023-02-11T11:29:20.371Z,5.50
2023-02-11T11:31:53.407Z,2.67
2023-02-11T11:34:40.786Z,2.97
2023-02-11T11:37:19.137Z,3.30
2023-02-11T11:40:08.421Z,2.10
2023-02-11T11:42:37.719Z,4.37
2023-02-11T11:45:05.191Z,5.87
2023-02-11T11:47:52.694Z,3.67
2023-02-11T11:50:27.281Z,3.07
2023-02-11T11:53:31.285Z,3.07
2023-02-11T11:56:07.304Z,2.63
2023-02-11T11:58:35.142Z,3.50
2023-02-11T12:01:36.211Z,10.33
2023-02-11T12:04:30.919Z,2.70
2023-02-11T12:07:07.081Z,5.57
2023-02-11T12:09:45.746Z,3.60
2023-02-11T12:12:33.422Z,2.13
2023-02-11T12:15:00.509Z,2.00
2023-02-11T12:18:07.620Z,2.07
2023-02-11T12:21:15.720Z,6.37
2023-02-11T12:23:54.839Z,3.87
2023-02-11T12:26:24.795Z,1.97
2023-02-11T12:29:07.574Z,1.73
2023-02-11T12:31:51.694Z,3.90
2023-02-11T12:34:18.422Z,1.57
2023-02-11T12:36:55.284Z,4.97
2023-02-11T12:39:21.984Z,3.10
2023-02-11T12:42:38.801Z,1.80
2023-02-11T12:45:11.786Z,2.43
2023-02-11T12:47:50.063Z,1.10
2023-02-11T12:50:16.770Z,2.20
2023-02-11T12:52:43.441Z,1.90
2023-02-11T12:55:21.127Z,1.23
2023-02-11T12:57:50.520Z,1.53
2023-02-11T13:00:25.060Z,1.20
2023-02-11T13:03:06.046Z,2.73
2023-02-11T13:05:45.123Z,2.20
2023-02-11T13:08:21.088Z,1.53
2023-02-11T13:10:53.112Z,3.07
2023-02-11T13:13:27.241Z,2.13
2023-02-11T13:16:07.381Z,1.47
2023-02-11T13:18:45.011Z,2.43
2023-02-11T13:21:14.689Z,1.43
2023-02-11T13:23:47.358Z,2.27
2023-02-11T13:26:25.598Z,2.17
2023-02-11T13:28:56.202Z,3.67
2023-02-11T13:31:27.543Z,2.13
2023-02-11T13:33:54.477Z,1.97
2023-02-11T13:36:24.417Z,3.73
2023-02-11T13:39:00.473Z,2.80
2023-02-11T13:41:41.495Z,4.43
2023-02-11T13:44:10.988Z,4.30
2023-02-11T13:46:55.634Z,5.60
2023-02-11T13:49:36.317Z,6.60
2023-02-11T13:52:06.822Z,5.93
2023-02-11T13:54:37.836Z,4.07
2023-02-11T13:57:20.243Z,4.10
2023-02-11T13:59:58.569Z,3.90
2023-02-11T14:02:53.511Z,6.03
2023-02-11T14:05:43.697Z,5.40
2023-02-11T14:08:28.889Z,15.43
2023-02-11T14:11:02.252Z,6.10
2023-02-11T14:13:34.018Z,4.80
2023-02-11T14:16:17.118Z,3.50
2023-02-11T14:18:47.071Z,3.57
2023-02-11T14:21:16.708Z,7.53
2023-02-11T14:23:44.319Z,5.53
2023-02-11T14:26:11.203Z,3.87
2023-02-11T14:28:41.757Z,4.23
2023-02-11T14:31:13.044Z,2.57
2023-02-11T14:34:08.181Z,3.27
2023-02-11T14:36:51.858Z,6.27
2023-02-11T14:39:41.848Z,7.03
2023-02-11T14:42:19.039Z,6.93
2023-02-11T14:44:49.267Z,3.27
2023-02-11T14:47:20.967Z,5.20
2023-02-11T14:49:49.912Z,3.90
2023-02-11T14:52:28.524Z,3.90
2023-02-11T14:55:33.243Z,3.37
2023-02-11T14:58:08.712Z,5.40
2023-02-11T15:00:35.829Z,4.40
2023-02-11T15:03:02.797Z,4.47
2023-02-11T15:05:29.983Z,5.60
2023-02-11T15:08:04.743Z,7.50
2023-02-11T15:10:36.510Z,13.00
2023-02-11T15:13:05.144Z,20.27
2023-02-11T15:15:33.010Z,12.67
2023-02-11T15:18:03.399Z,6.93
2023-02-11T15:20:33.304Z,5.27
2023-02-11T15:23:06.094Z,4.97
2023-02-11T15:25:34.270Z,8.33
2023-02-11T15:28:01.611Z,10.83
2023-02-11T15:30:34.158Z,14.50
2023-02-11T15:33:03.348Z,14.73
2023-02-11T15:35:35.075Z,20.50
2023-02-11T15:38:01.954Z,7.87
2023-02-11T15:40:32.996Z,6.90
2023-02-11T15:43:06.484Z,8.07
2023-02-11T15:45:42.057Z,8.87
2023-02-11T15:48:30.726Z,21.57
2023-02-11T15:51:01.550Z,6.30
2023-02-11T15:53:31.382Z,9.40
2023-02-11T15:56:26.958Z,7.87
2023-02-11T15:58:57.142Z,7.00
2023-02-11T16:01:35.751Z,5.73
2023-02-11T16:04:04.014Z,5.73
2023-02-11T16:06:42.806Z,3.83
2023-02-11T16:09:11.275Z,9.30
2023-02-11T16:11:55.421Z,10.63
2023-02-11T16:14:34.584Z,5.03
2023-02-11T16:17:22.580Z,3.03
2023-02-11T16:19:52.148Z,5.70
2023-02-11T16:22:35.626Z,6.27
2023-02-11T16:25:02.623Z,4.37
2023-02-11T16:27:37.252Z,3.13
2023-02-11T16:30:05.694Z,6.87
2023-02-11T16:32:32.558Z,8.07
2023-02-11T16:35:01.423Z,12.53
2023-02-11T16:37:28.448Z,8.07
2023-02-11T16:39:58.318Z,8.60
2023-02-11T16:42:25.598Z,8.83
2023-02-11T16:44:53.092Z,5.70
2023-02-11T16:47:26.660Z,6.53
2023-02-11T16:49:55.539Z,10.83
2023-02-11T16:52:23.023Z,5.20
2023-02-11T16:54:50.225Z,5.60
2023-02-11T16:57:22.335Z,11.07
2023-02-11T16:59:49.976Z,10.13
2023-02-11T17:02:28.562Z,4.53
2023-02-11T17:04:58.044Z,6.43
2023-02-11T17:07:24.900Z,8.80
2023-02-11T17:09:52.400Z,4.70
2023-02-11T17:12:19.876Z,6.93
2023-02-11T17:14:46.676Z,10.33
2023-02-11T17:17:13.884Z,5.70
2023-02-11T17:19:41.716Z,5.47
2023-02-11T17:22:10.280Z,4.23
2023-02-11T17:24:37.489Z,5.03
2023-02-11T17:27:04.341Z,5.80
2023-02-11T17:29:31.045Z,10.90
2023-02-11T17:31:58.172Z,6.00
2023-02-11T17:34:25.091Z,6.07
2023-02-11T17:36:52.219Z,4.73
2023-02-11T17:39:21.026Z,5.83
2023-02-11T17:41:48.153Z,5.30
2023-02-11T17:44:16.487Z,5.87
2023-02-11T17:46:43.512Z,7.60
2023-02-11T17:49:12.015Z,4.37
2023-02-11T17:51:40.197Z,4.53
2023-02-11T17:54:11.064Z,3.80
2023-02-11T17:56:39.001Z,3.20
2023-02-11T17:59:06.908Z,3.90
2023-02-11T18:01:35.165Z,2.60
2023-02-11T18:04:02.749Z,3.63
2023-02-11T18:06:29.568Z,2.87
2023-02-11T18:08:59.882Z,9.27
2023-02-11T18:11:28.284Z,7.13
2023-02-11T18:13:54.976Z,9.50
2023-02-11T18:16:23.325Z,2.77
2023-02-11T18:18:50.473Z,4.00
2023-02-11T18:21:20.608Z,2.57
2023-02-11T18:23:48.419Z,2.67
2023-02-11T18:26:17.626Z,3.60
2023-02-11T18:28:45.954Z,3.93
2023-02-11T18:31:13.940Z,2.70
2023-02-11T18:33:41.616Z,3.53
2023-02-11T18:36:11.116Z,4.87
2023-02-11T18:38:38.394Z,2.07
2023-02-11T18:41:07.229Z,3.87
2023-02-11T18:43:34.569Z,8.53
2023-02-11T18:46:02.978Z,12.83
2023-02-11T18:48:30.696Z,4.83
2023-02-11T18:50:57.869Z,7.47
2023-02-11T18:53:25.309Z,6.20
2023-02-11T18:55:52.782Z,6.37
2023-02-11T18:58:21.358Z,4.93
2023-02-11T19:00:50.016Z,7.73
2023-02-11T19:03:17.616Z,3.27
2023-02-11T19:05:49.609Z,6.57
2023-02-11T19:08:17.782Z,4.37
2023-02-11T19:10:47.241Z,6.97
2023-02-11T19:13:15.675Z,5.03
2023-02-11T19:15:44.255Z,4.67
2023-02-11T19:18:12.172Z,4.77
2023-02-11T19:20:40.420Z,5.80
2023-02-11T19:23:07.304Z,4.87
2023-02-11T19:25:34.705Z,4.10
2023-02-11T19:28:02.755Z,11.33
2023-02-11T19:30:29.519Z,4.87
2023-02-11T19:32:57.898Z,3.93
2023-02-11T19:35:25.797Z,6.10
2023-02-11T19:37:52.770Z,5.27
2023-02-11T19:40:21.339Z,6.70
2023-02-11T19:42:48.070Z,6.67
2023-02-11T19:45:15.078Z,7.90
2023-02-11T19:47:41.853Z,4.87
2023-02-11T19:50:09.450Z,7.53
2023-02-11T19:52:40.704Z,5.37
2023-02-11T19:55:08.386Z,5.40
2023-02-11T19:57:36.854Z,9.30
2023-02-11T20:00:04.700Z,9.90
2023-02-11T20:02:40.383Z,13.17
2023-02-11T20:05:08.164Z,6.53
2023-02-11T20:07:35.195Z,7.20
2023-02-11T20:10:02.611Z,8.93
2023-02-11T20:12:29.973Z,9.97
2023-02-11T20:14:56.760Z,6.73
2023-02-11T20:17:23.514Z,5.37
2023-02-11T20:19:50.347Z,7.03
2023-02-11T20:22:17.589Z,7.20
2023-02-11T20:24:44.806Z,4.63
2023-02-11T20:27:12.545Z,8.03
2023-02-11T20:29:40.436Z,7.83
2023-02-11T20:32:07.627Z,6.33
2023-02-11T20:34:34.701Z,5.87
2023-02-11T20:37:02.748Z,7.63
2023-02-11T20:39:30.184Z,7.00
2023-02-11T20:41:58.229Z,6.63
2023-02-11T20:44:25.670Z,7.87
2023-02-11T20:46:54.141Z,8.87
2023-02-11T20:49:24.709Z,6.87
2023-02-11T20:51:53.794Z,8.77
2023-02-11T20:54:22.573Z,10.37
2023-02-11T20:56:51.276Z,8.30
2023-02-11T20:59:19.264Z,8.10
2023-02-11T21:01:49.176Z,12.57
2023-02-11T21:04:18.728Z,8.43
2023-02-11T21:06:48.958Z,11.03
2023-02-11T21:09:19.934Z,12.57
2023-02-11T21:11:47.492Z,10.30
2023-02-11T21:14:14.380Z,9.07
2023-02-11T21:16:42.331Z,11.60
2023-02-11T21:19:09.238Z,13.60
2023-02-11T21:21:37.228Z,10.93
2023-02-11T21:24:05.142Z,10.83
2023-02-11T21:26:32.572Z,10.47
2023-02-11T21:28:59.351Z,10.53
2023-02-11T21:31:29.288Z,11.07
2023-02-11T21:33:59.414Z,13.10
2023-02-11T21:36:28.493Z,11.23
2023-02-11T21:38:55.519Z,14.37
2023-02-11T21:41:22.974Z,15.13
2023-02-11T21:43:51.028Z,12.00
2023-02-11T21:46:18.941Z,13.33
2023-02-11T21:48:46.410Z,12.93
2023-02-11T21:51:18.421Z,10.03
2023-02-11T21:53:45.787Z,11.90
2023-02-11T21:56:17.627Z,11.87
2023-02-11T21:58:45.775Z,14.00
2023-02-11T22:01:15.624Z,10.57
2023-02-11T22:03:42.825Z,16.17
2023-02-11T22:06:12.174Z,13.67
2023-02-11T22:08:39.985Z,13.03
2023-02-11T22:11:10.573Z,12.87
2023-02-11T22:13:38.028Z,15.43
2023-02-11T22:16:07.781Z,14.23
2023-02-11T22:18:34.883Z,12.63
2023-02-11T22:21:08.010Z,12.50
2023-02-11T22:23:35.226Z,12.73
2023-02-11T22:26:11.002Z,16.07
2023-02-11T22:28:40.526Z,13.73
2023-02-11T22:31:12.054Z,35.77
2023-02-11T22:33:39.415Z,15.57
2023-02-11T22:36:12.532Z,16.00
2023-02-11T22:38:40.542Z,16.97
2023-02-11T22:41:09.628Z,17.47
2023-02-11T22:43:36.653Z,13.57
2023-02-11T22:46:06.479Z,15.03
2023-02-11T22:48:35.160Z,16.17
2023-02-11T22:51:06.625Z,14.60
2023-02-11T22:53:33.929Z,15.17
2023-02-11T22:56:08.386Z,17.87
2023-02-11T22:58:36.261Z,16.47
2023-02-11T23:01:04.378Z,18.23
2023-02-11T23:03:32.115Z,17.87
2023-02-11T23:06:00.078Z,18.00
2023-02-11T23:08:28.271Z,16.10
2023-02-11T23:10:55.290Z,16.80
2023-02-11T23:13:22.413Z,20.50
2023-02-11T23:15:49.599Z,16.63
2023-02-11T23:18:16.584Z,20.80
2023-02-11T23:20:43.876Z,19.80
2023-02-11T23:23:11.052Z,18.93
2023-02-11T23:25:43.475Z,21.47
2023-02-11T23:28:12.091Z,17.60
2023-02-11T23:30:39.422Z,17.30
2023-02-11T23:33:06.166Z,18.23
2023-02-11T23:35:33.317Z,16.77
2023-02-11T23:38:00.170Z,18.13
2023-02-11T23:40:27.396Z,16.20
2023-02-11T23:42:54.092Z,18.17
2023-02-11T23:45:20.805Z,17.00
2023-02-11T23:47:47.713Z,18.33
2023-02-11T23:50:14.468Z,20.00
2023-02-11T23:52:41.690Z,15.93
2023-02-11T23:55:08.847Z,19.37
2023-02-11T23:57:36.213Z,17.97
